createdAt,value
2023-02-19T00:01:55.178Z,14.80
2023-02-19T00:04:25.584Z,17.70
2023-02-19T00:06:55.391Z,13.13
2023-02-19T00:09:29.037Z,14.30
2023-02-19T00:11:58.859Z,15.60
2023-02-19T00:14:28.655Z,14.77
2023-02-19T00:16:58.515Z,16.50
2023-02-19T00:19:28.266Z,14.17
2023-02-19T00:21:58.076Z,17.00
2023-02-19T00:24:30.488Z,17.03
2023-02-19T00:27:00.249Z,11.30
2023-02-19T00:29:30.661Z,14.90
2023-02-19T00:32:00.515Z,17.57
2023-02-19T00:34:30.439Z,18.53
2023-02-19T00:37:00.430Z,12.87
2023-02-19T00:39:33.004Z,12.53
2023-02-19T00:42:03.682Z,13.83
2023-02-19T00:44:33.638Z,16.17
2023-02-19T00:47:03.407Z,15.33
2023-02-19T00:49:39.471Z,11.73
2023-02-19T00:52:39.415Z,10.77
2023-02-19T00:55:15.222Z,18.93
2023-02-19T00:58:02.892Z,21.63
2023-02-19T01:00:33.766Z,14.60
2023-02-19T01:03:05.883Z,4.50
2023-02-19T01:05:38.920Z,3.40
2023-02-19T01:08:21.337Z,2.90
2023-02-19T01:10:53.954Z,3.33
2023-02-19T01:13:23.796Z,3.63
2023-02-19T01:15:54.582Z,4.17
2023-02-19T01:18:24.385Z,2.30
2023-02-19T01:20:54.192Z,1.90
2023-02-19T01:23:24.102Z,2.30
2023-02-19T01:25:56.510Z,2.53
2023-02-19T01:28:26.297Z,2.40
2023-02-19T01:30:56.118Z,1.63
2023-02-19T01:33:25.921Z,2.53
2023-02-19T01:35:55.708Z,4.50
2023-02-19T01:38:25.741Z,3.47
2023-02-19T01:41:04.829Z,4.13
2023-02-19T01:43:35.624Z,2.50
2023-02-19T01:46:05.485Z,2.27
2023-02-19T01:48:40.018Z,3.80
2023-02-19T01:51:14.305Z,4.60
2023-02-19T01:53:52.443Z,3.40
2023-02-19T02:12:36.152Z,4.57
2023-02-19T02:15:20.692Z,3.00
2023-02-19T02:18:10.351Z,4.33
2023-02-19T02:21:06.862Z,4.10
2023-02-19T02:24:24.295Z,4.50
2023-02-19T02:27:28.413Z,4.33
2023-02-19T02:30:20.707Z,4.83
2023-02-19T02:32:58.288Z,4.87
2023-02-19T02:35:40.210Z,3.83
2023-02-19T02:41:46.550Z,3.30
2023-02-19T02:44:16.482Z,4.33
2023-02-19T02:46:49.764Z,3.67
2023-02-19T02:49:26.388Z,4.20
2023-02-19T02:51:57.814Z,5.07
2023-02-19T02:54:45.475Z,3.80
2023-02-19T02:57:17.460Z,5.13
2023-02-19T02:59:49.270Z,3.10
2023-02-19T03:03:13.600Z,3.73
2023-02-19T03:06:42.390Z,3.80
2023-02-19T03:09:16.643Z,3.03
2023-02-19T03:12:02.315Z,3.33
2023-02-19T03:14:51.210Z,4.00
2023-02-19T03:17:49.903Z,2.93
2023-02-19T03:20:26.142Z,1.90
2023-02-19T03:23:00.676Z,2.20
2023-02-19T03:25:46.082Z,2.83
2023-02-19T03:28:18.595Z,3.73
2023-02-19T03:30:53.705Z,2.67
2023-02-19T03:33:29.101Z,2.67
2023-02-19T03:36:03.049Z,3.87
2023-02-19T03:38:43.625Z,3.23
2023-02-19T03:41:19.615Z,2.70
2023-02-19T03:43:55.680Z,2.20
2023-02-19T03:46:36.811Z,2.93
2023-02-19T03:49:13.343Z,2.37
2023-02-19T03:51:47.267Z,2.20
2023-02-19T03:54:36.253Z,2.00
2023-02-19T03:57:17.498Z,2.17
2023-02-19T03:59:54.629Z,2.33
2023-02-19T04:02:30.966Z,3.60
2023-02-19T04:05:19.861Z,2.23
2023-02-19T04:07:52.915Z,2.10
2023-02-19T04:10:26.824Z,2.40
2023-02-19T04:13:01.521Z,4.30
2023-02-19T04:15:34.813Z,2.60
2023-02-19T04:18:09.098Z,3.00
2023-02-19T04:20:45.157Z,3.50
2023-02-19T04:23:16.979Z,1.27
2023-02-19T04:25:52.805Z,2.37
2023-02-19T04:28:22.796Z,4.90
2023-02-19T04:30:52.800Z,2.47
2023-02-19T04:33:22.779Z,2.07
2023-02-19T04:35:52.565Z,2.23
2023-02-19T04:38:22.666Z,1.27
2023-02-19T04:40:55.127Z,1.27
2023-02-19T04:43:24.939Z,3.23
2023-02-19T04:45:54.837Z,1.27
2023-02-19T04:48:24.652Z,1.60
2023-02-19T04:50:54.436Z,3.03
2023-02-19T04:53:24.222Z,2.67
2023-02-19T04:55:56.885Z,2.27
2023-02-19T04:58:26.685Z,1.67
2023-02-19T05:00:56.558Z,2.60
2023-02-19T05:03:26.356Z,1.37
2023-02-19T05:05:56.345Z,1.30
2023-02-19T05:08:26.256Z,1.93
2023-02-19T05:11:00.791Z,0.83
2023-02-19T05:13:31.172Z,1.50
2023-02-19T05:16:02.080Z,0.90
2023-02-19T05:18:33.433Z,3.47
2023-02-19T05:21:04.436Z,2.53
2023-02-19T05:23:34.504Z,1.00
2023-02-19T05:26:10.630Z,2.63
2023-02-19T05:28:40.449Z,2.77
2023-02-19T05:31:12.344Z,0.90
2023-02-19T05:33:43.180Z,1.30
2023-02-19T05:36:15.763Z,3.80
2023-02-19T05:38:45.618Z,3.07
2023-02-19T05:41:20.575Z,2.37
2023-02-19T05:43:52.073Z,3.27
2023-02-19T05:46:24.127Z,3.73
2023-02-19T05:48:55.220Z,3.53
2023-02-19T05:51:27.527Z,1.63
2023-02-19T05:53:58.643Z,1.40
2023-02-19T05:56:34.909Z,4.40
2023-02-19T05:59:07.901Z,3.33
2023-02-19T06:01:41.591Z,3.47
2023-02-19T06:04:12.257Z,3.60
2023-02-19T06:06:42.682Z,5.20
2023-02-19T06:09:13.505Z,5.83
2023-02-19T06:12:20.397Z,4.17
2023-02-19T06:14:51.073Z,3.63
2023-02-19T06:17:21.026Z,3.73
2023-02-19T06:19:50.885Z,2.00
2023-02-19T06:22:20.743Z,6.23
2023-02-19T06:24:50.739Z,4.87
2023-02-19T06:27:23.160Z,3.17
2023-02-19T06:29:53.238Z,2.50
2023-02-19T06:32:23.552Z,3.73
2023-02-19T06:34:53.403Z,2.23
2023-02-19T06:37:23.216Z,2.63
2023-02-19T06:39:53.112Z,2.37
2023-02-19T06:42:25.684Z,2.93
2023-02-19T06:44:55.495Z,2.57
2023-02-19T06:47:25.568Z,2.83
2023-02-19T06:49:55.465Z,3.17
2023-02-19T06:52:25.374Z,1.87
2023-02-19T06:54:55.279Z,3.87
2023-02-19T06:57:27.808Z,2.00
2023-02-19T06:59:57.641Z,2.33
2023-02-19T07:02:27.416Z,2.33
2023-02-19T07:04:57.196Z,4.60
2023-02-19T07:07:26.965Z,2.00
2023-02-19T07:09:56.721Z,2.83
2023-02-19T07:12:29.404Z,1.67
2023-02-19T07:14:59.327Z,1.93
2023-02-19T07:17:29.079Z,3.50
2023-02-19T07:19:58.860Z,2.07
2023-02-19T07:22:28.712Z,2.27
2023-02-19T07:24:58.476Z,1.43
2023-02-19T07:27:30.950Z,1.90
2023-02-19T07:30:00.926Z,3.13
2023-02-19T07:32:30.980Z,2.30
2023-02-19T07:35:00.815Z,1.40
2023-02-19T07:37:47.929Z,1.63
2023-02-19T07:40:17.989Z,1.30
2023-02-19T07:42:50.376Z,1.20
2023-02-19T07:45:20.508Z,2.23
2023-02-19T07:47:50.297Z,2.40
2023-02-19T07:50:20.431Z,2.97
2023-02-19T07:52:50.268Z,2.00
2023-02-19T07:55:20.185Z,2.13
2023-02-19T07:57:52.570Z,1.57
2023-02-19T08:00:23.172Z,1.47
2023-02-19T08:03:03.423Z,2.20
2023-02-19T08:05:34.890Z,2.87
2023-02-19T08:08:04.717Z,1.60
2023-02-19T08:10:55.669Z,1.23
2023-02-19T08:13:30.558Z,1.00
2023-02-19T08:16:24.080Z,2.00
2023-02-19T08:18:54.495Z,1.23
2023-02-19T08:21:24.658Z,2.87
2023-02-19T08:23:54.617Z,1.73
2023-02-19T08:26:24.550Z,1.93
2023-02-19T08:28:57.109Z,2.30
2023-02-19T08:31:27.411Z,2.63
2023-02-19T08:33:58.093Z,2.97
2023-02-19T08:36:28.087Z,1.23
2023-02-19T08:39:00.163Z,2.73
2023-02-19T08:44:20.516Z,2.90
2023-02-19T08:46:50.405Z,3.10
2023-02-19T08:49:20.276Z,3.20
2023-02-19T08:51:50.094Z,1.57
2023-02-19T08:54:19.895Z,1.90
2023-02-19T08:56:49.682Z,1.57
2023-02-19T08:59:22.150Z,3.10
2023-02-19T09:01:52.825Z,2.00
2023-02-19T09:04:22.801Z,2.73
2023-02-19T09:06:52.693Z,2.70
2023-02-19T09:09:22.491Z,2.60
2023-02-19T09:11:52.373Z,3.07
2023-02-19T09:14:25.010Z,3.97
2023-02-19T09:16:54.809Z,2.33
2023-02-19T09:19:24.703Z,3.77
2023-02-19T09:21:54.703Z,2.50
2023-02-19T09:24:25.010Z,3.73
2023-02-19T09:26:55.686Z,1.73
2023-02-19T09:29:30.162Z,1.73
2023-02-19T09:32:01.055Z,2.50
2023-02-19T09:34:32.047Z,4.10
2023-02-19T09:37:01.809Z,3.73
2023-02-19T09:39:31.590Z,3.27
2023-02-19T09:42:04.570Z,4.20
2023-02-19T09:44:39.162Z,4.20
2023-02-19T09:47:16.220Z,2.20
2023-02-19T09:49:51.365Z,3.40
2023-02-19T09:52:37.059Z,7.53
2023-02-19T09:55:19.154Z,2.43
2023-02-19T09:57:50.056Z,3.63
2023-02-19T10:00:28.676Z,2.83
2023-02-19T10:03:06.389Z,3.03
2023-02-19T10:05:37.114Z,2.87
2023-02-19T10:08:11.667Z,3.83
2023-02-19T10:10:42.079Z,3.00
2023-02-19T10:13:22.572Z,2.53
2023-02-19T10:15:57.619Z,2.67
2023-02-19T10:18:29.157Z,3.37
2023-02-19T10:21:00.121Z,2.80
2023-02-19T10:23:30.066Z,3.73
2023-02-19T10:26:01.878Z,2.73
2023-02-19T10:28:33.967Z,1.77
2023-02-19T10:31:10.388Z,2.47
2023-02-19T10:33:53.340Z,2.90
2023-02-19T10:36:32.272Z,5.03
2023-02-19T10:39:03.306Z,3.03
2023-02-19T10:41:34.078Z,4.07
2023-02-19T10:44:17.558Z,4.07
2023-02-19T10:46:52.418Z,3.23
2023-02-19T10:49:28.232Z,2.57
2023-02-19T10:52:01.725Z,5.63
2023-02-19T10:54:35.752Z,3.53
2023-02-19T10:57:30.496Z,3.80
2023-02-19T11:00:02.542Z,4.73
2023-02-19T11:02:34.988Z,2.13
2023-02-19T11:05:21.002Z,2.53
2023-02-19T11:07:53.675Z,1.73
2023-02-19T11:10:28.887Z,2.43
2023-02-19T11:13:01.996Z,2.00
2023-02-19T11:15:34.227Z,5.73
2023-02-19T11:18:10.299Z,2.83
2023-02-19T11:20:40.304Z,3.10
2023-02-19T11:23:19.547Z,5.53
2023-02-19T11:25:51.130Z,4.33
2023-02-19T11:28:35.881Z,3.47
2023-02-19T11:31:26.496Z,3.63
2023-02-19T11:34:03.464Z,3.43
2023-02-19T11:36:37.393Z,1.67
2023-02-19T11:39:23.070Z,2.87
2023-02-19T11:42:08.383Z,2.43
2023-02-19T11:44:52.406Z,2.20
2023-02-19T11:47:48.829Z,1.83
2023-02-19T11:50:28.071Z,3.13
2023-02-19T11:53:13.033Z,1.90
2023-02-19T11:55:56.564Z,2.50
2023-02-19T11:58:50.351Z,2.90
2023-02-19T12:01:26.620Z,3.30
2023-02-19T12:04:24.969Z,3.27
2023-02-19T12:07:08.845Z,3.77
2023-02-19T12:09:50.008Z,4.80
2023-02-19T12:12:31.524Z,2.50
2023-02-19T12:15:25.555Z,4.03
2023-02-19T12:18:26.310Z,3.83
2023-02-19T12:21:10.774Z,4.37
2023-02-19T12:24:05.987Z,2.87
2023-02-19T12:26:45.804Z,2.53
2023-02-19T12:29:35.720Z,3.17
2023-02-19T12:32:38.043Z,5.33
2023-02-19T12:35:46.193Z,4.13
2023-02-19T12:38:25.406Z,5.67
2023-02-19T12:41:21.025Z,3.20
2023-02-19T12:43:58.530Z,4.90
2023-02-19T12:46:35.167Z,4.37
2023-02-19T12:49:14.055Z,4.93
2023-02-19T12:51:48.480Z,4.13
2023-02-19T12:54:23.875Z,6.77
2023-02-19T12:57:00.568Z,6.63
2023-02-19T12:59:35.633Z,6.13
2023-02-19T13:02:15.169Z,3.47
2023-02-19T13:04:50.335Z,3.37
2023-02-19T13:07:26.903Z,4.30
2023-02-19T13:10:02.381Z,4.27
2023-02-19T13:12:40.048Z,2.87
2023-02-19T13:15:18.584Z,4.33
2023-02-19T13:17:51.900Z,4.40
2023-02-19T13:20:30.170Z,5.13
2023-02-19T13:23:19.243Z,2.23
2023-02-19T13:26:01.893Z,2.30
2023-02-19T13:28:53.065Z,2.50
2023-02-19T13:31:44.848Z,4.53
2023-02-19T13:34:32.907Z,2.60
2023-02-19T13:37:03.646Z,2.23
2023-02-19T13:39:36.574Z,4.40
2023-02-19T13:42:07.204Z,2.97
2023-02-19T13:44:42.398Z,3.50
2023-02-19T13:47:43.967Z,2.93
2023-02-19T13:50:23.605Z,3.47
2023-02-19T13:52:53.931Z,4.20
2023-02-19T13:55:50.970Z,3.03
2023-02-19T13:58:56.071Z,3.27
2023-02-19T14:01:58.705Z,5.17
2023-02-19T14:04:50.494Z,3.33
2023-02-19T14:07:39.342Z,3.07
2023-02-19T14:10:16.568Z,2.50
2023-02-19T14:15:45.317Z,3.97
2023-02-19T14:18:46.387Z,4.40
2023-02-19T14:21:28.161Z,3.13
2023-02-19T14:24:00.972Z,2.03
2023-02-19T14:26:33.794Z,5.17
2023-02-19T14:29:07.790Z,4.10
2023-02-19T14:31:40.449Z,5.83
2023-02-19T14:34:19.727Z,3.67
2023-02-19T14:36:56.806Z,1.73
2023-02-19T14:39:29.023Z,4.40
2023-02-19T14:42:01.716Z,4.80
2023-02-19T14:44:34.984Z,4.90
2023-02-19T14:47:09.638Z,3.00
2023-02-19T14:49:47.058Z,2.63
2023-02-19T14:52:25.216Z,3.20
2023-02-19T14:55:01.126Z,2.20
2023-02-19T14:57:35.459Z,4.27
2023-02-19T15:00:27.431Z,4.13
2023-02-19T15:03:02.743Z,2.97
2023-02-19T15:05:36.821Z,2.13
2023-02-19T15:08:13.456Z,3.43
2023-02-19T15:10:46.744Z,5.10
2023-02-19T15:13:26.189Z,4.53
2023-02-19T15:15:56.990Z,2.13
2023-02-19T15:18:42.012Z,3.33
2023-02-19T15:21:26.199Z,4.00
2023-02-19T15:24:03.778Z,3.43
2023-02-19T15:26:38.039Z,3.23
2023-02-19T15:29:14.178Z,3.27
2023-02-19T15:31:49.050Z,4.10
2023-02-19T15:34:20.659Z,6.17
2023-02-19T15:36:52.960Z,5.17
2023-02-19T15:39:27.418Z,5.53
2023-02-19T15:42:00.509Z,4.80
2023-02-19T15:44:39.495Z,3.73
2023-02-19T15:47:18.023Z,3.47
2023-02-19T15:49:57.351Z,3.03
2023-02-19T15:52:34.645Z,3.70
2023-02-19T15:55:16.559Z,3.63
2023-02-19T15:57:53.529Z,4.37
2023-02-19T16:00:29.963Z,4.30
2023-02-19T16:03:00.882Z,3.53
2023-02-19T16:05:31.845Z,3.10
2023-02-19T16:08:19.946Z,4.00
2023-02-19T16:11:00.477Z,5.67
2023-02-19T16:13:32.221Z,6.60
2023-02-19T16:16:09.069Z,5.23
2023-02-19T16:18:38.874Z,3.77
2023-02-19T16:21:12.651Z,6.00
2023-02-19T16:23:45.704Z,5.03
2023-02-19T16:26:18.634Z,4.63
2023-02-19T16:28:55.184Z,5.27
2023-02-19T16:31:29.655Z,4.13
2023-02-19T16:33:59.586Z,3.77
2023-02-19T16:36:41.947Z,2.30
2023-02-19T16:39:19.675Z,6.37
2023-02-19T16:42:19.666Z,3.97
2023-02-19T16:44:58.065Z,4.77
2023-02-19T16:47:41.735Z,5.03
2023-02-19T16:50:17.122Z,4.13
2023-02-19T16:52:55.220Z,5.47
2023-02-19T16:55:25.851Z,3.87
2023-02-19T16:57:55.789Z,2.93
2023-02-19T17:00:31.193Z,5.53
2023-02-19T17:03:09.022Z,6.83
2023-02-19T17:05:40.600Z,6.40
2023-02-19T17:08:29.364Z,5.17
2023-02-19T17:10:59.151Z,4.97
2023-02-19T17:13:29.018Z,6.80
2023-02-19T17:16:02.093Z,5.73
2023-02-19T17:18:31.995Z,4.50
2023-02-19T17:21:19.386Z,4.97
2023-02-19T17:23:49.264Z,3.60
2023-02-19T17:26:20.056Z,4.93
2023-02-19T17:28:50.108Z,5.03
2023-02-19T17:31:22.788Z,3.10
2023-02-19T17:33:52.899Z,4.23
2023-02-19T17:36:26.927Z,5.10
2023-02-19T17:39:00.308Z,4.83
2023-02-19T17:41:30.930Z,5.97
2023-02-19T17:44:00.955Z,6.47
2023-02-19T17:46:34.142Z,4.67
2023-02-19T17:49:03.942Z,5.57
2023-02-19T17:51:34.003Z,5.97
2023-02-19T17:54:08.237Z,6.27
2023-02-19T17:56:43.381Z,6.13
2023-02-19T17:59:18.225Z,10.23
2023-02-19T18:01:58.983Z,7.73
2023-02-19T18:04:28.778Z,2.90
2023-02-19T18:06:58.532Z,4.23
2023-02-19T18:09:28.328Z,7.40
2023-02-19T18:11:58.108Z,5.10
2023-02-19T18:14:27.938Z,4.93
2023-02-19T18:17:00.395Z,5.97
2023-02-19T18:19:35.222Z,6.70
2023-02-19T18:22:06.650Z,5.13
2023-02-19T18:24:36.521Z,3.40
2023-02-19T18:27:07.675Z,5.70
2023-02-19T18:29:37.434Z,5.20
2023-02-19T18:32:09.964Z,5.67
2023-02-19T18:34:39.779Z,3.20
2023-02-19T18:37:09.569Z,2.90
2023-02-19T18:39:39.378Z,4.73
2023-02-19T18:42:13.530Z,4.40
2023-02-19T18:44:43.752Z,5.13
2023-02-19T18:47:16.143Z,5.90
2023-02-19T18:49:49.545Z,4.97
2023-02-19T18:52:24.948Z,6.70
2023-02-19T18:54:57.462Z,6.23
2023-02-19T18:57:30.754Z,4.87
2023-02-19T19:00:00.881Z,4.40
2023-02-19T19:02:48.792Z,5.97
2023-02-19T19:05:23.410Z,3.80
2023-02-19T19:07:57.978Z,5.40
2023-02-19T19:10:28.202Z,5.77
2023-02-19T19:13:01.524Z,4.17
2023-02-19T19:15:31.572Z,3.80
2023-02-19T19:18:04.093Z,6.53
2023-02-19T19:20:34.119Z,4.03
2023-02-19T19:23:07.512Z,2.60
2023-02-19T19:25:37.440Z,4.03
2023-02-19T19:28:07.757Z,3.27
2023-02-19T19:30:38.032Z,3.43
2023-02-19T19:33:12.160Z,2.80
2023-02-19T19:35:43.983Z,4.50
2023-02-19T19:38:13.874Z,3.67
2023-02-19T19:40:43.887Z,2.50
2023-02-19T19:43:14.926Z,6.03
2023-02-19T19:45:45.061Z,3.43
2023-02-19T19:48:20.084Z,3.67
2023-02-19T19:50:50.105Z,2.97
2023-02-19T19:53:20.222Z,1.70
2023-02-19T19:55:50.367Z,3.03
2023-02-19T19:58:24.615Z,1.67
2023-02-19T20:00:55.006Z,2.90
2023-02-19T20:03:27.677Z,1.80
2023-02-19T20:06:00.398Z,2.60
2023-02-19T20:08:30.291Z,2.20
2023-02-19T20:11:00.211Z,2.83
2023-02-19T20:13:30.735Z,3.40
2023-02-19T20:16:00.832Z,2.23
2023-02-19T20:18:33.258Z,2.17
2023-02-19T20:21:03.819Z,3.40
2023-02-19T20:23:33.614Z,2.23
2023-02-19T20:26:06.183Z,2.07
2023-02-19T20:28:36.051Z,4.17
2023-02-19T20:31:05.954Z,1.60
2023-02-19T20:33:43.354Z,2.70
2023-02-19T20:36:13.397Z,4.17
2023-02-19T20:38:43.703Z,2.50
2023-02-19T20:41:13.954Z,2.20
2023-02-19T20:43:43.915Z,1.60
2023-02-19T20:46:14.260Z,2.83
2023-02-19T20:48:48.469Z,2.90
2023-02-19T20:51:19.210Z,3.77
2023-02-19T20:53:49.040Z,2.87
2023-02-19T20:56:18.851Z,1.73
2023-02-19T20:58:48.652Z,2.10
2023-02-19T21:01:18.811Z,2.23
2023-02-19T21:03:51.205Z,2.17
2023-02-19T21:06:21.291Z,2.30
2023-02-19T21:08:51.065Z,2.63
2023-02-19T21:11:21.070Z,2.10
2023-02-19T21:13:51.135Z,3.30
2023-02-19T21:16:21.163Z,3.50
2023-02-19T21:18:53.594Z,2.37
2023-02-19T21:21:25.404Z,2.03
2023-02-19T21:23:55.196Z,5.47
2023-02-19T21:26:25.607Z,2.30
2023-02-19T21:28:56.029Z,4.50
2023-02-19T21:31:26.023Z,2.93
2023-02-19T21:33:58.450Z,2.00
2023-02-19T21:36:28.246Z,3.00
2023-02-19T21:38:58.065Z,2.53
2023-02-19T21:41:28.650Z,3.40
2023-02-19T21:43:58.767Z,1.70
2023-02-19T21:46:29.191Z,2.90
2023-02-19T21:49:01.565Z,3.50
2023-02-19T21:51:33.110Z,3.00
2023-02-19T21:54:03.486Z,2.73
2023-02-19T21:56:36.771Z,2.90
2023-02-19T21:59:06.981Z,2.00
2023-02-19T22:01:39.583Z,2.03
2023-02-19T22:04:15.583Z,3.17
2023-02-19T22:06:45.880Z,2.10
2023-02-19T22:09:17.252Z,4.53
2023-02-19T22:11:47.032Z,1.93
2023-02-19T22:14:17.047Z,3.17
2023-02-19T22:16:46.963Z,3.13
2023-02-19T22:19:19.331Z,5.97
2023-02-19T22:21:49.213Z,1.83
2023-02-19T22:24:21.064Z,2.47
2023-02-19T22:26:51.551Z,2.27
2023-02-19T22:29:21.323Z,3.23
2023-02-19T22:31:51.488Z,1.93
2023-02-19T22:34:24.051Z,5.37
2023-02-19T22:36:53.985Z,3.60
2023-02-19T22:39:26.473Z,2.60
2023-02-19T22:41:56.576Z,2.57
2023-02-19T22:44:26.372Z,3.47
2023-02-19T22:46:57.896Z,3.00
2023-02-19T22:49:30.421Z,4.63
2023-02-19T22:52:04.356Z,3.30
2023-02-19T22:54:34.157Z,3.57
2023-02-19T22:57:04.018Z,3.03
2023-02-19T22:59:34.503Z,4.83
2023-02-19T23:02:04.251Z,4.33
2023-02-19T23:04:36.643Z,3.67
2023-02-19T23:07:06.436Z,3.83
2023-02-19T23:09:36.388Z,4.83
2023-02-19T23:12:09.694Z,5.77
2023-02-19T23:14:39.615Z,5.83
2023-02-19T23:17:09.995Z,5.27
2023-02-19T23:19:43.096Z,5.67
2023-02-19T23:22:13.007Z,8.13
2023-02-19T23:24:42.767Z,5.73
2023-02-19T23:27:12.524Z,7.47
2023-02-19T23:29:42.268Z,6.73
2023-02-19T23:32:12.406Z,7.23
2023-02-19T23:34:44.957Z,7.70
2023-02-19T23:37:14.747Z,8.03
2023-02-19T23:39:44.488Z,7.17
2023-02-19T23:42:18.592Z,10.10
2023-02-19T23:44:49.587Z,9.80
2023-02-19T23:47:20.274Z,8.80
2023-02-19T23:49:52.624Z,9.73
2023-02-19T23:52:22.444Z,9.83
2023-02-19T23:54:52.192Z,12.63
2023-02-19T23:57:21.967Z,11.60
2023-02-19T23:59:51.882Z,10.23
